Time;durP1;ratioP1;P1;durP2;ratioP2;P2;SDS_P1;SDS_P2;PMS_P1;PMS_P2;Temp;Humidity;BMP_temperature;BMP_pressure;BME280_temperature;BME280_humidity;BME280_pressure;Samples;Min_cycle;Max_cycle;Signal;HPM_P1;HPM_P2
2022/12/27 00:02:07;;;;;;;;;;;3.20;99.90;;;;;;5015961;28;19932;-75
2022/12/27 00:04:33;;;;;;;;;;;3.30;99.90;;;;;;5015658;28;19933;-75
2022/12/27 00:06:58;;;;;;;;;;;3.30;99.90;;;;;;5014958;28;19926;-75
2022/12/27 00:09:24;;;;;;;;;;;3.30;99.90;;;;;;5013822;28;19932;-75
2022/12/27 00:11:49;;;;;;;;;;;3.30;99.90;;;;;;5011135;28;19952;-75
2022/12/27 00:14:15;;;;;;;;;;;3.40;99.90;;;;;;5013554;28;19954;-75
2022/12/27 00:16:40;;;;;;;;;;;3.50;99.90;;;;;;5014072;28;19991;-75
2022/12/27 00:19:06;;;;;;;;;;;3.50;99.90;;;;;;5015749;28;19931;-75
2022/12/27 00:21:32;;;;;;;;;;;3.50;99.90;;;;;;5013375;28;20332;-75
2022/12/27 00:23:58;;;;;;;;;;;3.40;99.90;;;;;;5012106;28;19937;-75
2022/12/27 00:26:26;;;;;;;;;;;3.40;99.90;;;;;;5015206;28;20336;-75
2022/12/27 00:28:52;;;;;;;;;;;3.40;99.90;;;;;;5014887;28;19960;-75
2022/12/27 00:31:18;;;;;;;;;;;3.40;99.90;;;;;;5011089;28;19997;-75
2022/12/27 00:33:45;;;;;;;;;;;3.30;99.90;;;;;;5014644;28;20197;-75
2022/12/27 00:36:12;;;;;;;;;;;3.30;99.90;;;;;;5017927;28;20431;-75
2022/12/27 00:38:38;;;;;;;;;;;3.30;99.90;;;;;;5019506;28;19981;-75
2022/12/27 00:41:04;;;;;;;;;;;3.20;99.90;;;;;;5034745;28;20023;-75
2022/12/27 00:43:29;;;;;;;;;;;3.20;99.90;;;;;;5013320;28;19930;-76
2022/12/27 00:45:55;;;;;;;;;;;3.10;99.90;;;;;;5016121;28;19936;-75
2022/12/27 00:48:21;;;;;;;;;;;3.10;99.90;;;;;;5011347;28;19961;-75
2022/12/27 00:50:47;;;;;;;;;;;3.10;99.90;;;;;;5012518;28;19933;-75
2022/12/27 00:53:12;;;;;;;;;;;3.10;99.90;;;;;;5013302;28;20520;-75
2022/12/27 00:55:40;;;;;;;;;;;3.10;99.90;;;;;;5013280;28;19929;-75
2022/12/27 00:58:06;;;;;;;;;;;3.20;99.90;;;;;;5014386;28;19925;-75
2022/12/27 01:00:31;;;;;;;;;;;3.20;99.90;;;;;;5013037;28;20469;-75
2022/12/27 01:02:57;;;;;;;;;;;3.10;99.90;;;;;;5017715;28;19940;-75
2022/12/27 01:05:22;;;;;;;;;;;3.10;99.90;;;;;;5025110;28;20015;-75
2022/12/27 01:07:48;;;;;;;;;;;3.10;99.90;;;;;;5014687;28;19925;-75
2022/12/27 01:10:14;;;;;;;;;;;3.10;99.90;;;;;;5013846;28;19948;-75
2022/12/27 01:12:39;;;;;;;;;;;3.10;99.90;;;;;;5011314;28;19965;-75
2022/12/27 01:15:06;;;;;;;;;;;3.10;99.90;;;;;;4995587;28;19925;-75
2022/12/27 01:17:31;;;;;;;;;;;3.20;99.90;;;;;;5015652;28;19926;-75
2022/12/27 01:19:57;;;;;;;;;;;3.20;99.90;;;;;;5014075;28;20468;-75
2022/12/27 01:22:22;;;;;;;;;;;3.30;99.90;;;;;;5011635;28;19936;-75
2022/12/27 01:24:48;;;;;;;;;;;3.20;99.90;;;;;;5013862;28;20019;-75
2022/12/27 01:27:13;;;;;;;;;;;3.30;99.90;;;;;;5012000;28;19925;-75
2022/12/27 01:29:39;;;;;;;;;;;3.40;99.90;;;;;;5012420;28;19973;-75
2022/12/27 01:32:05;;;;;;;;;;;3.40;99.90;;;;;;5011907;28;19991;-75
2022/12/27 01:34:30;;;;;;;;;;;3.50;99.90;;;;;;5013523;28;20211;-75
2022/12/27 01:36:56;;;;;;;;;;;3.60;99.90;;;;;;5012832;28;19937;-75
2022/12/27 01:39:21;;;;;;;;;;;3.60;99.90;;;;;;5012131;28;20001;-75
2022/12/27 01:44:52;;;;;;;;;;;3.60;99.90;;;;;;5012223;28;19933;-75
2022/12/27 01:47:21;;;;;;;;;;;3.60;99.90;;;;;;5012977;28;20322;-76
2022/12/27 01:49:59;;;;;;;;;;;3.60;99.90;;;;;;5013539;28;19929;-75
2022/12/27 01:52:26;;;;;;;;;;;3.60;99.90;;;;;;5010379;28;19929;-75
2022/12/27 01:54:53;;;;;;;;;;;3.60;99.90;;;;;;5012402;28;20024;-75
2022/12/27 01:57:19;;;;;;;;;;;3.70;99.90;;;;;;5013113;28;20000;-75
2022/12/27 01:59:45;;;;;;;;;;;3.80;99.90;;;;;;5012888;28;19968;-75
2022/12/27 02:02:11;;;;;;;;;;;3.80;99.90;;;;;;5011910;28;19926;-75
2022/12/27 02:04:37;;;;;;;;;;;3.80;99.90;;;;;;5012375;28;20568;-75
2022/12/27 02:07:03;;;;;;;;;;;3.90;99.90;;;;;;5003707;28;19925;-75
2022/12/27 02:09:34;;;;;;;;;;;3.90;99.90;;;;;;5027195;28;19933;-75
2022/12/27 02:12:01;;;;;;;;;;;3.90;99.90;;;;;;5024681;28;19940;-75
2022/12/27 02:14:28;;;;;;;;;;;3.90;99.90;;;;;;5010567;28;19937;-75
2022/12/27 02:16:59;;;;;;;;;;;4.00;99.90;;;;;;5010377;28;19949;-76
2022/12/27 02:19:40;;;;;;;;;;;4.00;99.90;;;;;;5013532;28;20430;-75
2022/12/27 02:22:24;;;;;;;;;;;4.00;99.90;;;;;;5011223;28;19929;-75
2022/12/27 02:24:52;;;;;;;;;;;4.10;99.90;;;;;;5025264;28;19933;-75
2022/12/27 02:27:36;;;;;;;;;;;4.00;99.90;;;;;;5013404;28;19926;-75
2022/12/27 02:30:06;;;;;;;;;;;4.10;99.90;;;;;;5012164;28;19925;-75
2022/12/27 02:32:37;;;;;;;;;;;4.10;99.90;;;;;;5027189;28;20013;-75
2022/12/27 02:35:14;;;;;;;;;;;4.10;99.90;;;;;;5011172;28;19937;-76
2022/12/27 02:38:12;;;;;;;;;;;4.10;99.90;;;;;;5009698;28;19929;-75
2022/12/27 02:54:51;;;;;;;;;;;4.00;99.90;;;;;;5011138;28;19929;-75
2022/12/27 02:57:28;;;;;;;;;;;4.10;99.90;;;;;;5011997;28;19971;-75
2022/12/27 03:05:40;;;;;;;;;;;4.10;99.90;;;;;;5009811;28;20691;-75
2022/12/27 03:08:09;;;;;;;;;;;4.10;99.90;;;;;;4998134;28;19929;-76
2022/12/27 03:16:19;;;;;;;;;;;4.10;99.90;;;;;;5014715;28;19925;-76
2022/12/27 03:18:50;;;;;;;;;;;4.10;99.90;;;;;;5016532;28;19929;-75
2022/12/27 03:26:51;;;;;;;;;;;4.10;99.90;;;;;;5028555;28;19929;-75
2022/12/27 03:34:52;;;;;;;;;;;4.00;99.90;;;;;;5015737;28;19926;-75
2022/12/27 03:40:22;;;;;;;;;;;4.00;99.90;;;;;;5016192;28;19929;-75
2022/12/27 03:43:11;;;;;;;;;;;4.10;99.90;;;;;;5012608;28;19925;-75
2022/12/27 03:48:24;;;;;;;;;;;4.20;99.90;;;;;;5012075;28;19940;-75
2022/12/27 03:50:53;;;;;;;;;;;4.30;99.90;;;;;;5013026;28;19941;-76
2022/12/27 03:53:28;;;;;;;;;;;4.30;99.90;;;;;;5014482;28;19926;-76
2022/12/27 03:55:54;;;;;;;;;;;4.40;99.90;;;;;;5012665;28;19965;-75
2022/12/27 03:58:19;;;;;;;;;;;4.40;99.90;;;;;;5014519;28;20000;-76
2022/12/27 04:00:45;;;;;;;;;;;4.40;99.90;;;;;;5015658;28;19992;-75
2022/12/27 04:03:10;;;;;;;;;;;4.40;99.90;;;;;;5015097;28;19944;-75
2022/12/27 04:05:36;;;;;;;;;;;4.50;99.90;;;;;;5015117;28;19993;-75
2022/12/27 04:35:23;;;;;;;;;;;4.30;99.90;;;;;;5012811;28;19936;-75
2022/12/27 04:37:48;;;;;;;;;;;4.20;99.90;;;;;;5014054;28;19980;-75
2022/12/27 04:56:59;;;;;;;;;;;4.00;99.90;;;;;;5013118;28;19980;-75
2022/12/27 05:02:09;;;;;;;;;;;4.00;99.90;;;;;;5011360;28;19948;-75
2022/12/27 05:04:36;;;;;;;;;;;4.00;99.90;;;;;;5012622;28;19937;-75
2022/12/27 05:13:58;;;;;;;;;;;3.90;99.90;;;;;;5014066;28;19925;-75
2022/12/27 05:15:16;;;;;;;;;;;4.00;99.90;;;;;;5010769;28;20276;-75
2022/12/27 05:17:41;;;;;;;;;;;3.90;99.90;;;;;;5012542;28;19957;-75
2022/12/27 05:20:07;;;;;;;;;;;3.90;99.90;;;;;;5010152;28;19925;-75
2022/12/27 05:25:37;;;;;;;;;;;3.90;99.90;;;;;;5012602;28;19941;-75
2022/12/27 05:28:07;;;;;;;;;;;3.90;99.90;;;;;;5012990;28;19936;-79
2022/12/27 05:30:37;;;;;;;;;;;3.90;99.90;;;;;;5009795;28;19925;-79
2022/12/27 05:33:03;;;;;;;;;;;4.00;99.90;;;;;;5009984;28;19933;-79
2022/12/27 05:35:29;;;;;;;;;;;4.00;99.90;;;;;;5013345;28;19932;-79
2022/12/27 05:37:55;;;;;;;;;;;4.10;99.90;;;;;;5009855;28;19936;-79
2022/12/27 05:40:21;;;;;;;;;;;4.10;99.90;;;;;;5014910;28;19929;-79
2022/12/27 05:42:46;;;;;;;;;;;4.10;99.90;;;;;;4994190;28;19965;-79
2022/12/27 05:45:13;;;;;;;;;;;4.20;99.90;;;;;;5013997;28;19925;-79
2022/12/27 05:47:39;;;;;;;;;;;4.20;99.90;;;;;;4988867;28;20012;-79
2022/12/27 05:50:04;;;;;;;;;;;4.30;99.90;;;;;;4990676;28;19953;-79
2022/12/27 05:52:30;;;;;;;;;;;4.30;99.90;;;;;;4990568;28;19949;-79
2022/12/27 05:54:55;;;;;;;;;;;4.30;99.90;;;;;;5009269;28;19933;-80
2022/12/27 05:57:21;;;;;;;;;;;4.30;99.90;;;;;;5008153;28;19940;-80
2022/12/27 05:59:46;;;;;;;;;;;4.30;99.90;;;;;;5029269;28;19934;-79
2022/12/27 06:02:12;;;;;;;;;;;4.30;99.90;;;;;;5014200;28;19948;-79
2022/12/27 06:04:38;;;;;;;;;;;4.40;99.90;;;;;;5016046;28;20023;-79
2022/12/27 06:07:03;;;;;;;;;;;4.40;99.90;;;;;;5030543;28;19926;-77
2022/12/27 06:09:29;;;;;;;;;;;4.40;99.90;;;;;;5009154;28;19926;-79
2022/12/27 06:11:54;;;;;;;;;;;4.40;99.90;;;;;;5011320;28;19972;-78
2022/12/27 06:14:20;;;;;;;;;;;4.40;99.90;;;;;;5013284;28;19930;-79
2022/12/27 06:16:46;;;;;;;;;;;4.40;99.90;;;;;;5011306;28;19964;-79
2022/12/27 06:19:11;;;;;;;;;;;4.40;99.90;;;;;;5010642;28;19936;-79
2022/12/27 06:21:37;;;;;;;;;;;4.40;99.90;;;;;;4994057;28;19936;-79
2022/12/27 06:24:02;;;;;;;;;;;4.40;99.90;;;;;;5011782;28;19963;-79
2022/12/27 06:26:28;;;;;;;;;;;4.40;99.90;;;;;;5011284;28;20323;-79
2022/12/27 06:28:55;;;;;;;;;;;4.40;99.90;;;;;;5009034;28;19936;-79
2022/12/27 06:31:21;;;;;;;;;;;4.40;99.90;;;;;;5008777;28;19968;-78
2022/12/27 06:33:48;;;;;;;;;;;4.40;99.90;;;;;;5025012;28;19937;-80
2022/12/27 06:36:14;;;;;;;;;;;4.40;99.90;;;;;;5012591;28;20023;-79
2022/12/27 06:38:40;;;;;;;;;;;4.40;99.90;;;;;;5011503;28;19929;-78
2022/12/27 06:41:07;;;;;;;;;;;4.30;99.90;;;;;;5028217;28;20099;-75
2022/12/27 06:43:33;;;;;;;;;;;4.30;99.90;;;;;;5015601;28;19929;-75
2022/12/27 06:46:00;;;;;;;;;;;4.30;99.90;;;;;;5015037;28;19933;-76
2022/12/27 06:48:25;;;;;;;;;;;4.30;99.90;;;;;;5021007;28;20011;-75
2022/12/27 06:50:51;;;;;;;;;;;4.30;99.90;;;;;;5034828;28;19929;-75
2022/12/27 06:53:17;;;;;;;;;;;4.30;99.90;;;;;;5004770;28;19929;-75
2022/12/27 06:55:42;;;;;;;;;;;4.20;99.90;;;;;;5020321;28;19931;-75
2022/12/27 06:58:08;;;;;;;;;;;4.20;99.90;;;;;;4988265;28;19948;-76
2022/12/27 07:00:33;;;;;;;;;;;4.20;99.90;;;;;;5019130;28;19925;-76
2022/12/27 07:02:59;;;;;;;;;;;4.20;99.90;;;;;;5037405;28;20415;-76
2022/12/27 07:05:24;;;;;;;;;;;4.20;99.90;;;;;;5036822;28;19932;-76
2022/12/27 07:07:52;;;;;;;;;;;4.20;99.90;;;;;;5021564;28;19976;-76
2022/12/27 07:10:18;;;;;;;;;;;4.20;99.90;;;;;;5005946;28;20383;-76
2022/12/27 07:12:43;;;;;;;;;;;4.20;99.90;;;;;;5021303;28;19926;-76
2022/12/27 07:15:09;;;;;;;;;;;4.10;99.90;;;;;;5021863;28;20301;-77
2022/12/27 07:17:35;;;;;;;;;;;4.10;99.90;;;;;;5036546;28;19998;-76
2022/12/27 07:20:02;;;;;;;;;;;4.20;99.90;;;;;;5036689;28;19936;-76
2022/12/27 07:22:27;;;;;;;;;;;4.20;99.90;;;;;;5019100;28;20369;-76
2022/12/27 07:24:53;;;;;;;;;;;4.30;99.90;;;;;;5018050;28;19929;-76
2022/12/27 07:27:19;;;;;;;;;;;4.30;99.90;;;;;;5019875;28;19940;-76
2022/12/27 07:29:44;;;;;;;;;;;4.30;99.90;;;;;;5021143;28;19926;-77
2022/12/27 07:32:10;;;;;;;;;;;4.20;99.90;;;;;;5018822;28;19929;-76
2022/12/27 07:34:36;;;;;;;;;;;4.20;99.90;;;;;;5021114;28;19926;-76
2022/12/27 07:37:01;;;;;;;;;;;4.20;99.90;;;;;;5020063;28;19932;-76
2022/12/27 07:39:27;;;;;;;;;;;4.10;99.90;;;;;;5020021;28;19933;-77
2022/12/27 07:41:52;;;;;;;;;;;4.10;99.90;;;;;;5018773;28;19933;-77
2022/12/27 07:44:18;;;;;;;;;;;4.10;99.90;;;;;;5019685;28;19956;-77
2022/12/27 07:46:44;;;;;;;;;;;4.10;99.90;;;;;;5019569;28;19932;-77
2022/12/27 07:49:10;;;;;;;;;;;4.10;99.90;;;;;;5007757;28;19932;-77
2022/12/27 07:51:36;;;;;;;;;;;4.10;99.90;;;;;;5034186;28;19968;-77
2022/12/27 07:54:01;;;;;;;;;;;4.10;99.90;;;;;;5020209;28;19945;-77
2022/12/27 07:56:27;;;;;;;;;;;4.10;99.90;;;;;;5031101;28;19929;-77
2022/12/27 07:58:54;;;;;;;;;;;4.10;99.90;;;;;;5009429;28;19940;-77
2022/12/27 08:01:20;;;;;;;;;;;4.10;99.90;;;;;;5036257;28;19926;-77
2022/12/27 08:03:46;;;;;;;;;;;4.10;99.90;;;;;;5017425;28;20041;-77
2022/12/27 08:06:27;;;;;;;;;;;4.10;99.90;;;;;;5020075;28;19977;-77
2022/12/27 08:08:52;;;;;;;;;;;4.00;99.90;;;;;;5020308;28;19952;-77
2022/12/27 08:11:19;;;;;;;;;;;4.00;99.90;;;;;;5021259;28;19929;-77
2022/12/27 08:13:44;;;;;;;;;;;4.00;99.90;;;;;;5019329;28;19926;-77
2022/12/27 08:16:18;;;;;;;;;;;4.00;99.90;;;;;;5036087;28;20396;-78
2022/12/27 08:18:44;;;;;;;;;;;4.00;99.90;;;;;;5020838;28;20321;-77
2022/12/27 08:21:09;;;;;;;;;;;4.00;99.90;;;;;;5035129;28;19937;-78
2022/12/27 08:23:35;;;;;;;;;;;4.00;99.90;;;;;;5035762;28;19933;-77
2022/12/27 08:26:00;;;;;;;;;;;4.00;99.90;;;;;;5017782;28;19929;-77
2022/12/27 08:28:30;;;;;;;;;;;4.00;99.90;;;;;;5019643;28;19926;-77
2022/12/27 08:30:56;;;;;;;;;;;3.90;99.90;;;;;;5035748;28;19929;-78
2022/12/27 08:33:22;;;;;;;;;;;3.90;99.90;;;;;;5020271;28;19940;-77
2022/12/27 08:35:47;;;;;;;;;;;4.00;99.90;;;;;;5017598;28;19992;-77
2022/12/27 08:38:13;;;;;;;;;;;3.90;99.90;;;;;;5019818;28;19929;-77
2022/12/27 08:40:39;;;;;;;;;;;3.90;99.90;;;;;;5019328;28;19936;-77
2022/12/27 08:43:05;;;;;;;;;;;3.90;99.90;;;;;;5019821;28;19929;-77
2022/12/27 08:45:31;;;;;;;;;;;3.90;99.90;;;;;;5019288;28;19932;-77
2022/12/27 08:47:59;;;;;;;;;;;3.90;99.90;;;;;;5020057;28;19929;-77
2022/12/27 08:50:25;;;;;;;;;;;3.90;99.90;;;;;;5019496;28;19936;-77
2022/12/27 08:52:51;;;;;;;;;;;3.90;99.90;;;;;;5006052;28;19956;-77
2022/12/27 08:55:17;;;;;;;;;;;3.90;99.90;;;;;;5019622;28;20384;-77
2022/12/27 08:57:42;;;;;;;;;;;3.90;99.90;;;;;;5018055;28;19949;-77
2022/12/27 09:00:08;;;;;;;;;;;3.90;99.90;;;;;;5019281;28;19976;-77
2022/12/27 09:02:34;;;;;;;;;;;4.00;99.90;;;;;;5019831;28;19925;-77
2022/12/27 09:04:59;;;;;;;;;;;4.00;99.90;;;;;;5018333;28;19948;-77
2022/12/27 09:07:25;;;;;;;;;;;4.10;99.90;;;;;;5016543;28;20377;-77
2022/12/27 09:09:50;;;;;;;;;;;4.20;99.90;;;;;;5018362;28;19930;-77
2022/12/27 09:12:16;;;;;;;;;;;4.30;99.90;;;;;;5019214;28;20016;-77
2022/12/27 09:14:41;;;;;;;;;;;4.30;99.90;;;;;;5019340;28;19952;-76
2022/12/27 09:17:08;;;;;;;;;;;4.40;99.90;;;;;;4999625;28;19929;-77
2022/12/27 09:19:34;;;;;;;;;;;4.40;99.90;;;;;;5018235;28;19925;-77
2022/12/27 09:21:59;;;;;;;;;;;4.60;99.90;;;;;;5018998;28;20451;-77
2022/12/27 09:24:25;;;;;;;;;;;4.90;99.90;;;;;;5034750;28;20001;-77
2022/12/27 09:26:51;;;;;;;;;;;5.20;99.90;;;;;;5017778;28;19933;-77
2022/12/27 09:29:16;;;;;;;;;;;5.20;99.90;;;;;;5015803;28;20040;-77
2022/12/27 09:31:42;;;;;;;;;;;5.20;99.90;;;;;;5017277;28;19929;-77
2022/12/27 09:34:09;;;;;;;;;;;5.20;99.90;;;;;;5033677;28;19929;-77
2022/12/27 09:36:37;;;;;;;;;;;5.40;99.90;;;;;;5019592;28;19926;-76
2022/12/27 09:39:03;;;;;;;;;;;5.40;99.90;;;;;;4987418;28;19925;-76
2022/12/27 09:41:46;;;;;;;;;;;5.20;99.90;;;;;;5016278;28;19941;-77
2022/12/27 09:44:16;;;;;;;;;;;5.00;99.90;;;;;;5032834;28;19929;-76
2022/12/27 09:46:45;;;;;;;;;;;4.80;99.90;;;;;;5033656;28;19925;-76
2022/12/27 09:49:12;;;;;;;;;;;4.80;99.90;;;;;;5019154;28;19933;-76
2022/12/27 09:51:44;;;;;;;;;;;5.00;99.90;;;;;;5010728;28;19972;-77
2022/12/27 09:54:11;;;;;;;;;;;5.40;99.90;;;;;;5019008;28;19948;-76
2022/12/27 09:56:37;;;;;;;;;;;5.40;99.90;;;;;;5033905;28;19948;-76
2022/12/27 09:59:08;;;;;;;;;;;5.50;99.90;;;;;;5034149;28;19926;-77
2022/12/27 10:01:35;;;;;;;;;;;5.70;99.90;;;;;;5017100;28;19926;-76
2022/12/27 10:04:00;;;;;;;;;;;5.70;99.90;;;;;;5028194;28;20866;-77
2022/12/27 10:06:45;;;;;;;;;;;5.70;99.90;;;;;;5013862;28;19925;-77
2022/12/27 10:09:25;;;;;;;;;;;5.60;99.90;;;;;;5034074;28;20389;-77
2022/12/27 10:11:58;;;;;;;;;;;5.60;99.90;;;;;;5017530;28;19926;-77
2022/12/27 10:14:32;;;;;;;;;;;5.60;99.90;;;;;;5032807;28;19976;-76
2022/12/27 10:17:18;;;;;;;;;;;5.60;99.90;;;;;;5020527;28;19952;-77
2022/12/27 10:19:59;;;;;;;;;;;5.70;99.90;;;;;;5037318;28;19925;-77
2022/12/27 10:22:25;;;;;;;;;;;5.70;99.90;;;;;;5008591;28;19932;-77
2022/12/27 10:24:53;;;;;;;;;;;5.80;99.90;;;;;;5021634;28;19929;-77
2022/12/27 10:27:22;;;;;;;;;;;5.80;99.90;;;;;;5021265;28;19929;-77
2022/12/27 10:29:50;;;;;;;;;;;5.70;99.90;;;;;;5037537;28;19926;-76
2022/12/27 10:32:16;;;;;;;;;;;5.80;99.90;;;;;;5023026;28;19952;-77
2022/12/27 10:34:42;;;;;;;;;;;5.80;99.90;;;;;;5020905;28;19925;-76
2022/12/27 10:37:12;;;;;;;;;;;5.80;99.90;;;;;;5021800;28;19940;-77
2022/12/27 10:39:38;;;;;;;;;;;5.80;99.90;;;;;;5009293;28;19929;-77
2022/12/27 10:42:22;;;;;;;;;;;5.80;99.90;;;;;;5022115;28;20301;-77
2022/12/27 10:44:47;;;;;;;;;;;5.80;99.90;;;;;;5003863;28;19929;-77
2022/12/27 10:47:14;;;;;;;;;;;5.90;99.90;;;;;;5020099;28;19925;-76
2022/12/27 10:49:41;;;;;;;;;;;5.90;99.90;;;;;;5021197;28;19936;-76
2022/12/27 10:52:08;;;;;;;;;;;5.90;99.90;;;;;;5021914;28;19926;-77
2022/12/27 10:54:47;;;;;;;;;;;5.90;99.90;;;;;;5020641;28;19929;-77
2022/12/27 10:57:32;;;;;;;;;;;5.90;99.90;;;;;;5019194;28;20738;-77
2022/12/27 11:00:07;;;;;;;;;;;5.90;99.90;;;;;;5021391;28;19929;-76
2022/12/27 11:02:33;;;;;;;;;;;5.90;99.90;;;;;;5022406;28;20379;-76
2022/12/27 11:04:59;;;;;;;;;;;5.90;99.90;;;;;;5021621;28;19925;-77
2022/12/27 11:07:29;;;;;;;;;;;6.00;99.90;;;;;;5020522;28;19932;-76
2022/12/27 11:10:05;;;;;;;;;;;6.00;99.90;;;;;;5021899;28;20009;-76
2022/12/27 11:12:31;;;;;;;;;;;6.10;99.90;;;;;;5019953;28;20297;-77
2022/12/27 11:14:57;;;;;;;;;;;6.20;99.90;;;;;;5020770;28;19937;-77
2022/12/27 11:17:25;;;;;;;;;;;6.30;99.90;;;;;;5033627;28;19936;-77
2022/12/27 11:19:51;;;;;;;;;;;6.30;99.90;;;;;;5021842;28;19989;-77
2022/12/27 11:22:16;;;;;;;;;;;6.30;99.90;;;;;;5020240;28;19930;-77
2022/12/27 11:24:46;;;;;;;;;;;6.40;99.90;;;;;;5021461;28;19968;-77
2022/12/27 11:27:21;;;;;;;;;;;6.40;99.90;;;;;;5035657;28;20085;-77
2022/12/27 11:29:46;;;;;;;;;;;6.30;99.90;;;;;;5020980;28;19975;-76
2022/12/27 11:32:13;;;;;;;;;;;6.30;99.90;;;;;;5021634;28;19925;-77
2022/12/27 11:34:42;;;;;;;;;;;6.20;99.90;;;;;;5020998;28;20523;-77
2022/12/27 11:37:13;;;;;;;;;;;6.20;99.90;;;;;;5021741;28;19926;-77
2022/12/27 11:39:50;;;;;;;;;;;6.10;99.90;;;;;;5021013;28;19952;-77
2022/12/27 11:42:24;;;;;;;;;;;6.10;99.90;;;;;;5020886;28;19981;-76
2022/12/27 11:45:03;;;;;;;;;;;6.10;99.90;;;;;;5037037;28;19948;-77
2022/12/27 11:47:30;;;;;;;;;;;6.10;99.90;;;;;;5020876;28;19926;-77
2022/12/27 11:50:15;;;;;;;;;;;6.10;99.90;;;;;;5035537;28;19987;-76
2022/12/27 11:53:03;;;;;;;;;;;6.10;99.90;;;;;;5019775;28;19940;-77
2022/12/27 11:55:44;;;;;;;;;;;6.10;99.90;;;;;;5020370;28;19929;-77
2022/12/27 11:58:25;;;;;;;;;;;6.10;99.90;;;;;;5021104;28;19925;-77
2022/12/27 12:01:01;;;;;;;;;;;6.10;99.90;;;;;;5018222;28;19929;-77
2022/12/27 12:03:30;;;;;;;;;;;6.20;99.90;;;;;;5019886;28;19930;-77
2022/12/27 12:06:13;;;;;;;;;;;6.20;99.90;;;;;;5021240;28;19984;-77
2022/12/27 12:08:49;;;;;;;;;;;6.30;99.90;;;;;;5019959;28;20001;-76
2022/12/27 12:11:14;;;;;;;;;;;6.30;99.90;;;;;;5021353;28;19986;-76
2022/12/27 12:13:55;;;;;;;;;;;6.30;99.90;;;;;;5019225;28;19929;-77
2022/12/27 12:16:39;;;;;;;;;;;6.30;99.90;;;;;;5020183;28;19940;-77
2022/12/27 12:19:20;;;;;;;;;;;6.30;99.90;;;;;;5021154;28;19971;-76
2022/12/27 12:21:45;;;;;;;;;;;6.40;99.90;;;;;;5018316;28;19925;-76
2022/12/27 12:24:11;;;;;;;;;;;6.40;99.90;;;;;;5020168;28;19929;-76
2022/12/27 12:27:03;;;;;;;;;;;6.50;99.90;;;;;;5020322;28;20073;-76
2022/12/27 12:29:44;;;;;;;;;;;6.40;99.90;;;;;;5004116;28;20299;-76
2022/12/27 12:32:16;;;;;;;;;;;6.40;99.90;;;;;;5019132;28;19992;-76
2022/12/27 12:35:20;;;;;;;;;;;6.30;99.90;;;;;;5019710;28;19968;-76
2022/12/27 12:37:55;;;;;;;;;;;6.30;99.90;;;;;;4977945;28;19962;-76
2022/12/27 12:40:31;;;;;;;;;;;6.20;99.90;;;;;;4978923;28;20004;-76
2022/12/27 12:43:15;;;;;;;;;;;6.10;99.90;;;;;;4998123;28;19934;-76
2022/12/27 12:45:59;;;;;;;;;;;6.10;99.90;;;;;;5019031;28;19929;-76
2022/12/27 12:48:58;;;;;;;;;;;6.00;99.90;;;;;;5018766;28;20008;-76
2022/12/27 12:51:45;;;;;;;;;;;6.00;99.90;;;;;;4996268;28;20410;-76
2022/12/27 12:54:28;;;;;;;;;;;6.10;99.90;;;;;;5009934;28;19929;-76
2022/12/27 12:57:09;;;;;;;;;;;6.10;99.90;;;;;;5017816;28;19926;-77
2022/12/27 12:59:35;;;;;;;;;;;6.10;99.90;;;;;;5019350;28;19925;-76
2022/12/27 13:02:20;;;;;;;;;;;6.10;99.90;;;;;;5035622;28;19984;-77
2022/12/27 13:04:45;;;;;;;;;;;6.10;99.90;;;;;;5018224;28;19925;-76
2022/12/27 13:07:13;;;;;;;;;;;6.20;99.90;;;;;;5019164;28;19936;-76
2022/12/27 13:10:08;;;;;;;;;;;6.20;99.90;;;;;;5018013;28;19937;-76
2022/12/27 13:12:37;;;;;;;;;;;6.20;99.90;;;;;;4979844;28;19988;-75
2022/12/27 13:15:03;;;;;;;;;;;6.20;99.90;;;;;;5016327;28;19933;-76
2022/12/27 13:17:54;;;;;;;;;;;6.20;99.90;;;;;;5016284;28;19942;-76
2022/12/27 13:20:29;;;;;;;;;;;6.30;99.90;;;;;;5018863;28;19926;-76
2022/12/27 13:23:07;;;;;;;;;;;6.20;99.90;;;;;;5034912;28;20340;-76
2022/12/27 13:25:41;;;;;;;;;;;6.20;99.90;;;;;;5018833;28;20016;-76
2022/12/27 13:28:13;;;;;;;;;;;6.20;99.90;;;;;;5001022;28;20012;-76
2022/12/27 13:30:50;;;;;;;;;;;6.10;99.90;;;;;;5016693;28;19997;-76
2022/12/27 13:33:42;;;;;;;;;;;6.10;99.90;;;;;;5017905;28;19934;-76
2022/12/27 13:36:15;;;;;;;;;;;6.10;99.90;;;;;;5018155;28;20534;-76
2022/12/27 13:38:43;;;;;;;;;;;6.10;99.90;;;;;;5016450;28;19941;-76
2022/12/27 13:41:47;;;;;;;;;;;6.10;99.90;;;;;;5018105;28;19932;-76
2022/12/27 13:44:31;;;;;;;;;;;6.10;99.90;;;;;;4975346;28;19941;-76
2022/12/27 13:47:15;;;;;;;;;;;6.10;99.90;;;;;;4975473;28;19930;-82
2022/12/27 13:49:59;;;;;;;;;;;6.10;99.90;;;;;;4991752;28;20016;-76
2022/12/27 13:52:25;;;;;;;;;;;6.10;99.90;;;;;;5017676;28;19925;-76
2022/12/27 13:55:03;;;;;;;;;;;6.10;99.90;;;;;;5016069;28;20024;-76
2022/12/27 13:57:47;;;;;;;;;;;6.00;99.90;;;;;;5021202;28;19926;-76
2022/12/27 14:00:16;;;;;;;;;;;6.00;99.90;;;;;;5029369;28;19968;-75
2022/12/27 14:03:00;;;;;;;;;;;6.10;99.90;;;;;;5012295;28;19925;-74
2022/12/27 14:05:38;;;;;;;;;;;6.10;99.90;;;;;;5006103;28;19925;-74
2022/12/27 14:08:09;;;;;;;;;;;6.10;99.90;;;;;;5016374;28;20379;-77
2022/12/27 14:10:36;;;;;;;;;;;6.10;99.90;;;;;;5014590;28;19953;-76
2022/12/27 14:13:06;;;;;;;;;;;6.00;99.90;;;;;;5014426;28;19948;-77
2022/12/27 14:15:31;;;;;;;;;;;6.00;99.90;;;;;;5019249;28;19933;-77
2022/12/27 14:18:11;;;;;;;;;;;6.00;99.90;;;;;;5016883;28;19929;-77
2022/12/27 14:20:44;;;;;;;;;;;6.00;99.90;;;;;;5015613;28;19929;-77
2022/12/27 14:23:16;;;;;;;;;;;5.90;99.90;;;;;;5016169;28;19955;-77
2022/12/27 14:25:59;;;;;;;;;;;5.90;99.90;;;;;;5008386;28;19936;-77
2022/12/27 14:28:41;;;;;;;;;;;5.90;99.90;;;;;;5012559;28;19971;-77
2022/12/27 14:31:16;;;;;;;;;;;5.90;99.90;;;;;;5015654;28;19937;-77
2022/12/27 14:33:52;;;;;;;;;;;5.90;99.90;;;;;;5011817;28;19926;-77
2022/12/27 14:36:53;;;;;;;;;;;5.90;99.90;;;;;;5007160;28;19926;-77
2022/12/27 14:39:44;;;;;;;;;;;5.80;99.90;;;;;;4969014;28;19934;-74
2022/12/27 14:42:28;;;;;;;;;;;5.90;99.90;;;;;;4999196;28;19937;-75
2022/12/27 14:45:23;;;;;;;;;;;5.90;99.90;;;;;;5014448;28;19937;-75
2022/12/27 14:48:07;;;;;;;;;;;5.90;99.90;;;;;;4992721;28;19953;-78
2022/12/27 14:50:36;;;;;;;;;;;5.90;99.90;;;;;;5015973;28;19929;-79
2022/12/27 14:53:04;;;;;;;;;;;5.90;99.90;;;;;;5015816;28;19925;-79
2022/12/27 14:55:36;;;;;;;;;;;5.90;99.90;;;;;;5015580;28;19948;-79
2022/12/27 14:58:04;;;;;;;;;;;5.80;99.90;;;;;;5016190;28;19926;-78
2022/12/27 15:00:47;;;;;;;;;;;5.80;99.90;;;;;;5017718;28;20308;-75
2022/12/27 15:03:28;;;;;;;;;;;5.80;99.90;;;;;;5021554;28;20048;-75
2022/12/27 15:05:56;;;;;;;;;;;5.80;99.90;;;;;;5020346;28;19929;-75
2022/12/27 15:08:25;;;;;;;;;;;5.80;99.90;;;;;;5020282;28;19926;-75
2022/12/27 15:10:58;;;;;;;;;;;5.80;99.90;;;;;;5022558;28;19940;-75
2022/12/27 15:13:32;;;;;;;;;;;5.80;99.90;;;;;;5021692;28;19937;-75
2022/12/27 15:16:07;;;;;;;;;;;5.80;99.90;;;;;;5021762;28;19926;-75
2022/12/27 15:18:38;;;;;;;;;;;5.80;99.90;;;;;;5035776;28;19925;-75
2022/12/27 15:21:13;;;;;;;;;;;5.80;99.90;;;;;;5020796;28;19926;-76
2022/12/27 15:23:51;;;;;;;;;;;5.70;99.90;;;;;;5022170;28;19925;-75
2022/12/27 15:26:34;;;;;;;;;;;5.60;99.90;;;;;;5036579;28;19929;-75
2022/12/27 15:29:03;;;;;;;;;;;5.60;99.90;;;;;;5018669;28;20023;-75
2022/12/27 15:31:47;;;;;;;;;;;5.50;99.90;;;;;;5021657;28;19925;-75
2022/12/27 15:34:31;;;;;;;;;;;5.50;99.90;;;;;;5020945;28;20454;-75
2022/12/27 15:36:57;;;;;;;;;;;5.40;99.90;;;;;;5019997;28;20024;-75
2022/12/27 15:39:31;;;;;;;;;;;5.30;99.90;;;;;;5020043;28;19925;-75
2022/12/27 15:41:57;;;;;;;;;;;5.20;99.90;;;;;;5020141;28;19948;-75
2022/12/27 15:44:28;;;;;;;;;;;5.20;99.90;;;;;;5021372;28;19930;-75
2022/12/27 15:47:06;;;;;;;;;;;5.20;99.90;;;;;;5035939;28;19925;-74
2022/12/27 15:49:34;;;;;;;;;;;5.10;99.90;;;;;;5021832;28;20039;-74
2022/12/27 15:52:18;;;;;;;;;;;5.10;99.90;;;;;;5016796;28;19929;-75
2022/12/27 15:55:02;;;;;;;;;;;5.00;99.90;;;;;;5007382;28;19926;-75
2022/12/27 15:57:31;;;;;;;;;;;5.00;99.90;;;;;;5021227;28;20024;-75
2022/12/27 16:00:15;;;;;;;;;;;5.00;99.90;;;;;;5020303;28;19938;-75
2022/12/27 16:02:47;;;;;;;;;;;4.90;99.90;;;;;;5018459;28;19933;-76
2022/12/27 16:05:12;;;;;;;;;;;4.90;99.90;;;;;;5018881;28;19925;-76
2022/12/27 16:07:45;;;;;;;;;;;4.90;99.90;;;;;;5020387;28;19933;-76
2022/12/27 16:10:29;;;;;;;;;;;4.90;99.90;;;;;;5014809;28;19930;-75
2022/12/27 16:12:57;;;;;;;;;;;4.90;99.90;;;;;;5010570;28;19930;-75
2022/12/27 16:15:42;;;;;;;;;;;4.90;99.90;;;;;;5019782;28;19929;-75
2022/12/27 16:18:10;;;;;;;;;;;4.90;99.90;;;;;;5019365;28;19932;-75
2022/12/27 16:20:37;;;;;;;;;;;4.90;99.90;;;;;;5010867;28;20024;-75
2022/12/27 16:23:05;;;;;;;;;;;4.90;99.90;;;;;;5019437;28;19987;-78
2022/12/27 16:25:35;;;;;;;;;;;4.90;99.90;;;;;;5021325;28;19971;-78
2022/12/27 16:28:06;;;;;;;;;;;4.90;99.90;;;;;;5025017;28;20360;-78
2022/12/27 16:30:51;;;;;;;;;;;4.90;99.90;;;;;;5019924;28;19929;-78
2022/12/27 16:33:25;;;;;;;;;;;4.90;99.90;;;;;;5020020;28;19933;-78